sensor_id;sensor_type;location;lat;lon;timestamp;temperature;humidity
5675;DHT22;2860;54.284;10.158;2022-09-12T00:02:11;9.90;99.90
5675;DHT22;2860;54.284;10.158;2022-09-12T00:04:37;9.90;99.90
5675;DHT22;2860;54.284;10.158;2022-09-12T00:07:02;9.80;99.90
5675;DHT22;2860;54.284;10.158;2022-09-12T00:09:28;9.80;99.90
5675;DHT22;2860;54.284;10.158;2022-09-12T00:11:53;9.80;99.90
5675;DHT22;2860;54.284;10.158;2022-09-12T00:14:19;9.80;99.90
5675;DHT22;2860;54.284;10.158;2022-09-12T00:16:44;9.80;99.90
5675;DHT22;2860;54.284;10.158;2022-09-12T00:19:11;9.80;99.90
5675;DHT22;2860;54.284;10.158;2022-09-12T00:21:38;9.80;99.90
5675;DHT22;2860;54.284;10.158;2022-09-12T00:24:04;9.70;99.90
5675;DHT22;2860;54.284;10.158;2022-09-12T00:26:30;9.70;99.90
5675;DHT22;2860;54.284;10.158;2022-09-12T00:28:56;9.70;99.90
5675;DHT22;2860;54.284;10.158;2022-09-12T00:31:23;9.70;99.90
5675;DHT22;2860;54.284;10.158;2022-09-12T00:33:50;9.60;99.90
5675;DHT22;2860;54.284;10.158;2022-09-12T00:36:19;9.60;99.90
5675;DHT22;2860;54.284;10.158;2022-09-12T00:38:45;9.60;99.90
5675;DHT22;2860;54.284;10.158;2022-09-12T00:41:19;9.60;99.90
5675;DHT22;2860;54.284;10.158;2022-09-12T00:43:47;9.50;99.90
5675;DHT22;2860;54.284;10.158;2022-09-12T00:48:52;9.50;99.90
5675;DHT22;2860;54.284;10.158;2022-09-12T00:51:18;9.50;99.90
5675;DHT22;2860;54.284;10.158;2022-09-12T00:53:45;9.40;99.90
5675;DHT22;2860;54.284;10.158;2022-09-12T00:56:14;9.40;99.90
5675;DHT22;2860;54.284;10.158;2022-09-12T00:58:53;9.40;99.90
5675;DHT22;2860;54.284;10.158;2022-09-12T01:01:19;9.40;99.90
5675;DHT22;2860;54.284;10.158;2022-09-12T01:03:44;9.30;99.90
5675;DHT22;2860;54.284;10.158;2022-09-12T01:06:27;9.30;99.90
5675;DHT22;2860;54.284;10.158;2022-09-12T01:08:55;9.30;99.90
5675;DHT22;2860;54.284;10.158;2022-09-12T01:11:21;9.30;99.90
5675;DHT22;2860;54.284;10.158;2022-09-12T01:13:47;9.30;99.90
5675;DHT22;2860;54.284;10.158;2022-09-12T01:16:14;9.30;99.90
5675;DHT22;2860;54.284;10.158;2022-09-12T01:21:53;9.30;99.90
5675;DHT22;2860;54.284;10.158;2022-09-12T01:27:45;9.30;99.90
5675;DHT22;2860;54.284;10.158;2022-09-12T01:30:30;9.20;99.90
5675;DHT22;2860;54.284;10.158;2022-09-12T01:33:24;9.20;99.90
5675;DHT22;2860;54.284;10.158;2022-09-12T01:38:52;9.20;99.90
5675;DHT22;2860;54.284;10.158;2022-09-12T01:41:33;9.20;99.90
5675;DHT22;2860;54.284;10.158;2022-09-12T01:44:13;9.20;99.90
5675;DHT22;2860;54.284;10.158;2022-09-12T01:46:47;9.20;99.90
5675;DHT22;2860;54.284;10.158;2022-09-12T01:49:23;9.20;99.90
5675;DHT22;2860;54.284;10.158;2022-09-12T01:51:59;9.10;99.90
5675;DHT22;2860;54.284;10.158;2022-09-12T01:54:33;9.10;99.90
5675;DHT22;2860;54.284;10.158;2022-09-12T01:57:03;9.00;99.90
5675;DHT22;2860;54.284;10.158;2022-09-12T01:59:37;9.00;99.90
5675;DHT22;2860;54.284;10.158;2022-09-12T02:02:09;9.00;99.90
5675;DHT22;2860;54.284;10.158;2022-09-12T02:04:40;9.00;99.90
5675;DHT22;2860;54.284;10.158;2022-09-12T02:07:15;9.00;99.90
5675;DHT22;2860;54.284;10.158;2022-09-12T02:09:50;9.00;99.90
5675;DHT22;2860;54.284;10.158;2022-09-12T02:12:23;9.00;99.90
5675;DHT22;2860;54.284;10.158;2022-09-12T02:14:58;9.00;99.90
5675;DHT22;2860;54.284;10.158;2022-09-12T02:17:25;9.00;99.90
5675;DHT22;2860;54.284;10.158;2022-09-12T02:22:49;8.90;99.90
5675;DHT22;2860;54.284;10.158;2022-09-12T02:25:17;8.80;99.90
5675;DHT22;2860;54.284;10.158;2022-09-12T02:27:48;8.80;99.90
5675;DHT22;2860;54.284;10.158;2022-09-12T02:30:15;8.70;99.90
5675;DHT22;2860;54.284;10.158;2022-09-12T02:35:43;8.70;99.90
5675;DHT22;2860;54.284;10.158;2022-09-12T02:38:39;8.70;99.90
5675;DHT22;2860;54.284;10.158;2022-09-12T02:41:08;8.70;99.90
5675;DHT22;2860;54.284;10.158;2022-09-12T02:43:35;8.70;99.90
5675;DHT22;2860;54.284;10.158;2022-09-12T02:46:04;8.70;99.90
5675;DHT22;2860;54.284;10.158;2022-09-12T02:48:33;8.70;99.90
5675;DHT22;2860;54.284;10.158;2022-09-12T02:50:59;8.70;99.90
5675;DHT22;2860;54.284;10.158;2022-09-12T02:53:25;8.70;99.90
5675;DHT22;2860;54.284;10.158;2022-09-12T02:55:51;8.70;99.90
5675;DHT22;2860;54.284;10.158;2022-09-12T02:58:19;8.70;99.90
5675;DHT22;2860;54.284;10.158;2022-09-12T03:00:55;8.70;99.90
5675;DHT22;2860;54.284;10.158;2022-09-12T03:06:27;8.70;99.90
5675;DHT22;2860;54.284;10.158;2022-09-12T03:09:17;8.70;99.90
5675;DHT22;2860;54.284;10.158;2022-09-12T03:17:51;8.60;99.90
5675;DHT22;2860;54.284;10.158;2022-09-12T03:20:57;8.50;99.90
5675;DHT22;2860;54.284;10.158;2022-09-12T03:23:46;8.50;99.90
5675;DHT22;2860;54.284;10.158;2022-09-12T03:26:15;8.50;99.90
5675;DHT22;2860;54.284;10.158;2022-09-12T03:28:42;8.50;99.90
5675;DHT22;2860;54.284;10.158;2022-09-12T03:31:14;8.50;99.90
5675;DHT22;2860;54.284;10.158;2022-09-12T03:33:40;8.50;99.90
5675;DHT22;2860;54.284;10.158;2022-09-12T03:36:08;8.50;99.90
5675;DHT22;2860;54.284;10.158;2022-09-12T03:38:38;8.50;99.90
5675;DHT22;2860;54.284;10.158;2022-09-12T03:41:03;8.50;99.90
5675;DHT22;2860;54.284;10.158;2022-09-12T03:43:29;8.50;99.90
5675;DHT22;2860;54.284;10.158;2022-09-12T03:45:54;8.40;99.90
5675;DHT22;2860;54.284;10.158;2022-09-12T03:48:20;8.40;99.90
5675;DHT22;2860;54.284;10.158;2022-09-12T03:50:45;8.40;99.90
5675;DHT22;2860;54.284;10.158;2022-09-12T03:53:11;8.50;99.90
5675;DHT22;2860;54.284;10.158;2022-09-12T03:55:38;8.40;99.90
5675;DHT22;2860;54.284;10.158;2022-09-12T03:58:03;8.40;99.90
5675;DHT22;2860;54.284;10.158;2022-09-12T04:00:29;8.40;99.90
5675;DHT22;2860;54.284;10.158;2022-09-12T04:02:55;8.40;99.90
5675;DHT22;2860;54.284;10.158;2022-09-12T04:05:22;8.40;99.90
5675;DHT22;2860;54.284;10.158;2022-09-12T04:07:48;8.40;99.90
5675;DHT22;2860;54.284;10.158;2022-09-12T04:10:14;8.30;99.90
5675;DHT22;2860;54.284;10.158;2022-09-12T04:12:39;8.30;99.90
5675;DHT22;2860;54.284;10.158;2022-09-12T04:15:06;8.30;99.90
5675;DHT22;2860;54.284;10.158;2022-09-12T04:17:33;8.30;99.90
5675;DHT22;2860;54.284;10.158;2022-09-12T04:19:59;8.30;99.90
5675;DHT22;2860;54.284;10.158;2022-09-12T04:22:24;8.30;99.90
5675;DHT22;2860;54.284;10.158;2022-09-12T04:24:50;8.20;99.90
5675;DHT22;2860;54.284;10.158;2022-09-12T04:27:15;8.20;99.90
5675;DHT22;2860;54.284;10.158;2022-09-12T04:29:40;8.20;99.90
5675;DHT22;2860;54.284;10.158;2022-09-12T04:32:06;8.20;99.90
5675;DHT22;2860;54.284;10.158;2022-09-12T04:34:31;8.20;99.90
5675;DHT22;2860;54.284;10.158;2022-09-12T04:36:57;8.20;99.90
5675;DHT22;2860;54.284;10.158;2022-09-12T04:39:23;8.20;99.90
5675;DHT22;2860;54.284;10.158;2022-09-12T04:41:49;8.10;99.90
5675;DHT22;2860;54.284;10.158;2022-09-12T04:44:14;8.10;99.90
5675;DHT22;2860;54.284;10.158;2022-09-12T04:46:44;8.10;99.90
5675;DHT22;2860;54.284;10.158;2022-09-12T04:49:11;8.10;99.90
5675;DHT22;2860;54.284;10.158;2022-09-12T04:51:38;8.10;99.90
5675;DHT22;2860;54.284;10.158;2022-09-12T04:54:13;8.10;99.90
5675;DHT22;2860;54.284;10.158;2022-09-12T04:56:41;8.10;99.90
5675;DHT22;2860;54.284;10.158;2022-09-12T04:59:07;8.10;99.90
5675;DHT22;2860;54.284;10.158;2022-09-12T05:01:34;8.10;99.90
5675;DHT22;2860;54.284;10.158;2022-09-12T05:04:00;8.20;99.90
5675;DHT22;2860;54.284;10.158;2022-09-12T05:06:29;8.20;99.90
5675;DHT22;2860;54.284;10.158;2022-09-12T05:08:55;8.20;99.90
5675;DHT22;2860;54.284;10.158;2022-09-12T05:11:25;8.20;99.90
5675;DHT22;2860;54.284;10.158;2022-09-12T05:13:51;8.20;99.90
5675;DHT22;2860;54.284;10.158;2022-09-12T05:16:17;8.20;99.90
5675;DHT22;2860;54.284;10.158;2022-09-12T05:18:44;8.30;99.90
5675;DHT22;2860;54.284;10.158;2022-09-12T05:21:13;8.30;99.90
5675;DHT22;2860;54.284;10.158;2022-09-12T05:23:39;8.40;99.90
5675;DHT22;2860;54.284;10.158;2022-09-12T05:26:06;8.50;99.90
5675;DHT22;2860;54.284;10.158;2022-09-12T05:28:36;8.60;99.90
5675;DHT22;2860;54.284;10.158;2022-09-12T05:31:08;9.10;99.90
5675;DHT22;2860;54.284;10.158;2022-09-12T05:33:36;9.40;99.90
5675;DHT22;2860;54.284;10.158;2022-09-12T05:36:04;9.80;99.90
5675;DHT22;2860;54.284;10.158;2022-09-12T05:38:31;10.10;99.90
5675;DHT22;2860;54.284;10.158;2022-09-12T05:41:10;10.30;99.90
5675;DHT22;2860;54.284;10.158;2022-09-12T05:43:38;10.60;99.90
5675;DHT22;2860;54.284;10.158;2022-09-12T05:46:23;10.70;99.90
5675;DHT22;2860;54.284;10.158;2022-09-12T05:48:50;10.80;99.90
5675;DHT22;2860;54.284;10.158;2022-09-12T05:51:21;10.90;99.90
5675;DHT22;2860;54.284;10.158;2022-09-12T05:53:49;10.90;99.90
5675;DHT22;2860;54.284;10.158;2022-09-12T05:56:21;10.90;99.90
5675;DHT22;2860;54.284;10.158;2022-09-12T06:01:18;10.90;99.90
5675;DHT22;2860;54.284;10.158;2022-09-12T06:03:49;10.80;99.90
5675;DHT22;2860;54.284;10.158;2022-09-12T06:06:18;10.90;99.90
5675;DHT22;2860;54.284;10.158;2022-09-12T06:08:45;10.90;99.90
5675;DHT22;2860;54.284;10.158;2022-09-12T06:11:13;11.00;99.90
5675;DHT22;2860;54.284;10.158;2022-09-12T06:13:40;11.10;99.90
5675;DHT22;2860;54.284;10.158;2022-09-12T06:16:17;11.20;99.90
5675;DHT22;2860;54.284;10.158;2022-09-12T06:18:50;11.30;99.90
5675;DHT22;2860;54.284;10.158;2022-09-12T06:21:16;11.50;99.90
5675;DHT22;2860;54.284;10.158;2022-09-12T06:23:42;11.60;99.90
5675;DHT22;2860;54.284;10.158;2022-09-12T06:26:10;11.80;99.90
5675;DHT22;2860;54.284;10.158;2022-09-12T06:28:38;12.00;99.90
5675;DHT22;2860;54.284;10.158;2022-09-12T06:31:06;12.10;99.90
5675;DHT22;2860;54.284;10.158;2022-09-12T06:33:37;12.30;99.90
5675;DHT22;2860;54.284;10.158;2022-09-12T06:36:04;12.50;99.90
5675;DHT22;2860;54.284;10.158;2022-09-12T06:38:31;12.60;99.90
5675;DHT22;2860;54.284;10.158;2022-09-12T06:40:57;12.80;99.90
5675;DHT22;2860;54.284;10.158;2022-09-12T06:43:24;12.90;99.90
5675;DHT22;2860;54.284;10.158;2022-09-12T06:45:49;13.10;99.90
5675;DHT22;2860;54.284;10.158;2022-09-12T06:48:15;13.20;99.90
5675;DHT22;2860;54.284;10.158;2022-09-12T06:50:41;13.30;99.90
5675;DHT22;2860;54.284;10.158;2022-09-12T06:53:06;13.50;99.90
5675;DHT22;2860;54.284;10.158;2022-09-12T06:55:32;13.60;99.90
5675;DHT22;2860;54.284;10.158;2022-09-12T06:57:58;13.80;99.90
5675;DHT22;2860;54.284;10.158;2022-09-12T07:00:24;13.90;99.90
5675;DHT22;2860;54.284;10.158;2022-09-12T07:02:53;14.10;99.90
5675;DHT22;2860;54.284;10.158;2022-09-12T07:05:20;14.20;99.90
5675;DHT22;2860;54.284;10.158;2022-09-12T07:07:46;14.40;99.90
5675;DHT22;2860;54.284;10.158;2022-09-12T07:10:12;14.50;99.90
5675;DHT22;2860;54.284;10.158;2022-09-12T07:12:37;14.50;99.90
5675;DHT22;2860;54.284;10.158;2022-09-12T07:15:03;14.70;99.90
5675;DHT22;2860;54.284;10.158;2022-09-12T07:17:28;14.80;99.90
5675;DHT22;2860;54.284;10.158;2022-09-12T07:19:54;14.90;99.90
5675;DHT22;2860;54.284;10.158;2022-09-12T07:22:20;15.00;99.90
5675;DHT22;2860;54.284;10.158;2022-09-12T07:24:45;15.00;99.90
5675;DHT22;2860;54.284;10.158;2022-09-12T07:27:11;15.10;99.90
5675;DHT22;2860;54.284;10.158;2022-09-12T07:29:37;15.20;99.90
5675;DHT22;2860;54.284;10.158;2022-09-12T07:32:04;15.30;99.90
5675;DHT22;2860;54.284;10.158;2022-09-12T07:34:30;15.50;99.90
5675;DHT22;2860;54.284;10.158;2022-09-12T07:36:55;15.60;99.90
5675;DHT22;2860;54.284;10.158;2022-09-12T07:39:21;15.80;99.90
5675;DHT22;2860;54.284;10.158;2022-09-12T07:41:47;16.00;99.90
5675;DHT22;2860;54.284;10.158;2022-09-12T07:44:12;16.20;99.90
5675;DHT22;2860;54.284;10.158;2022-09-12T07:46:38;16.40;99.90
5675;DHT22;2860;54.284;10.158;2022-09-12T07:49:04;16.60;99.90
5675;DHT22;2860;54.284;10.158;2022-09-12T07:51:30;16.80;99.90
5675;DHT22;2860;54.284;10.158;2022-09-12T07:53:56;16.90;99.90
5675;DHT22;2860;54.284;10.158;2022-09-12T07:56:23;17.00;99.90
5675;DHT22;2860;54.284;10.158;2022-09-12T07:58:49;17.10;99.90
5675;DHT22;2860;54.284;10.158;2022-09-12T08:01:16;17.30;99.90
5675;DHT22;2860;54.284;10.158;2022-09-12T08:03:45;17.40;99.90
5675;DHT22;2860;54.284;10.158;2022-09-12T08:06:12;17.60;99.90
5675;DHT22;2860;54.284;10.158;2022-09-12T08:08:39;17.80;99.90
5675;DHT22;2860;54.284;10.158;2022-09-12T08:11:07;17.90;99.90
5675;DHT22;2860;54.284;10.158;2022-09-12T08:13:34;18.00;99.90
5675;DHT22;2860;54.284;10.158;2022-09-12T08:16:03;18.10;99.90
5675;DHT22;2860;54.284;10.158;2022-09-12T08:18:30;18.10;99.90
5675;DHT22;2860;54.284;10.158;2022-09-12T08:21:02;18.20;99.90
5675;DHT22;2860;54.284;10.158;2022-09-12T08:23:28;18.20;99.90
5675;DHT22;2860;54.284;10.158;2022-09-12T08:25:57;18.20;99.90
5675;DHT22;2860;54.284;10.158;2022-09-12T08:28:24;18.30;99.90
5675;DHT22;2860;54.284;10.158;2022-09-12T08:30:50;18.40;99.90
5675;DHT22;2860;54.284;10.158;2022-09-12T08:33:16;18.40;99.90
5675;DHT22;2860;54.284;10.158;2022-09-12T08:35:41;18.50;99.90
5675;DHT22;2860;54.284;10.158;2022-09-12T08:38:07;18.60;99.90
5675;DHT22;2860;54.284;10.158;2022-09-12T08:40:49;18.70;99.90
5675;DHT22;2860;54.284;10.158;2022-09-12T08:46:10;18.90;99.90
5675;DHT22;2860;54.284;10.158;2022-09-12T08:48:37;19.00;99.90
5675;DHT22;2860;54.284;10.158;2022-09-12T08:51:03;19.00;99.90
5675;DHT22;2860;54.284;10.158;2022-09-12T08:53:30;19.20;99.90
5675;DHT22;2860;54.284;10.158;2022-09-12T08:55:58;19.20;99.90
5675;DHT22;2860;54.284;10.158;2022-09-12T08:58:26;19.40;99.90
5675;DHT22;2860;54.284;10.158;2022-09-12T09:04:09;19.50;99.90
5675;DHT22;2860;54.284;10.158;2022-09-12T09:06:51;19.50;99.90
5675;DHT22;2860;54.284;10.158;2022-09-12T09:09:33;19.60;99.90
5675;DHT22;2860;54.284;10.158;2022-09-12T09:12:16;19.80;99.90
5675;DHT22;2860;54.284;10.158;2022-09-12T09:17:29;20.00;99.90
5675;DHT22;2860;54.284;10.158;2022-09-12T09:20:14;20.10;99.90
5675;DHT22;2860;54.284;10.158;2022-09-12T09:22:54;20.20;99.90
5675;DHT22;2860;54.284;10.158;2022-09-12T09:25:24;20.30;99.90
5675;DHT22;2860;54.284;10.158;2022-09-12T09:28:06;20.30;99.90
5675;DHT22;2860;54.284;10.158;2022-09-12T09:30:35;20.40;99.90
5675;DHT22;2860;54.284;10.158;2022-09-12T09:33:03;20.50;99.90
5675;DHT22;2860;54.284;10.158;2022-09-12T09:35:46;20.60;99.90
5675;DHT22;2860;54.284;10.158;2022-09-12T09:38:27;20.70;99.90
5675;DHT22;2860;54.284;10.158;2022-09-12T09:43:50;20.80;99.90
5675;DHT22;2860;54.284;10.158;2022-09-12T09:46:16;20.90;99.90
5675;DHT22;2860;54.284;10.158;2022-09-12T09:48:44;20.90;99.90
5675;DHT22;2860;54.284;10.158;2022-09-12T09:51:12;20.90;99.90
5675;DHT22;2860;54.284;10.158;2022-09-12T09:53:50;21.00;99.90
5675;DHT22;2860;54.284;10.158;2022-09-12T09:56:37;21.00;99.90
5675;DHT22;2860;54.284;10.158;2022-09-12T10:01:49;21.10;99.90
5675;DHT22;2860;54.284;10.158;2022-09-12T10:04:21;21.10;99.90
5675;DHT22;2860;54.284;10.158;2022-09-12T10:06:51;21.20;99.90
5675;DHT22;2860;54.284;10.158;2022-09-12T10:09:20;21.20;99.90
5675;DHT22;2860;54.284;10.158;2022-09-12T10:11:47;21.30;99.90
5675;DHT22;2860;54.284;10.158;2022-09-12T10:16:59;21.50;99.90
5675;DHT22;2860;54.284;10.158;2022-09-12T10:19:37;21.60;99.90
5675;DHT22;2860;54.284;10.158;2022-09-12T10:22:04;21.60;99.90
5675;DHT22;2860;54.284;10.158;2022-09-12T10:24:36;21.70;99.90
5675;DHT22;2860;54.284;10.158;2022-09-12T10:27:18;21.80;99.90
5675;DHT22;2860;54.284;10.158;2022-09-12T10:29:59;21.80;99.90
5675;DHT22;2860;54.284;10.158;2022-09-12T10:35:06;21.80;99.90
5675;DHT22;2860;54.284;10.158;2022-09-12T10:37:38;21.70;99.90
5675;DHT22;2860;54.284;10.158;2022-09-12T10:40:06;21.80;99.90
5675;DHT22;2860;54.284;10.158;2022-09-12T10:42:48;21.80;99.90
5675;DHT22;2860;54.284;10.158;2022-09-12T10:45:30;21.90;99.90
5675;DHT22;2860;54.284;10.158;2022-09-12T10:48:01;21.90;99.90
5675;DHT22;2860;54.284;10.158;2022-09-12T10:53:19;21.90;99.90
5675;DHT22;2860;54.284;10.158;2022-09-12T10:56:10;21.80;99.90
5675;DHT22;2860;54.284;10.158;2022-09-12T10:58:55;21.80;99.90
5675;DHT22;2860;54.284;10.158;2022-09-12T11:01:39;21.90;99.90
5675;DHT22;2860;54.284;10.158;2022-09-12T11:06:55;21.90;99.90
5675;DHT22;2860;54.284;10.158;2022-09-12T11:11:51;22.10;99.90
5675;DHT22;2860;54.284;10.158;2022-09-12T11:17:49;22.20;99.90
5675;DHT22;2860;54.284;10.158;2022-09-12T11:23:31;22.30;99.90
5675;DHT22;2860;54.284;10.158;2022-09-12T11:28:50;22.40;99.90
5675;DHT22;2860;54.284;10.158;2022-09-12T11:34:14;22.50;99.90
5675;DHT22;2860;54.284;10.158;2022-09-12T11:37:37;22.50;99.90
5675;DHT22;2860;54.284;10.158;2022-09-12T11:39:38;22.50;99.90
5675;DHT22;2860;54.284;10.158;2022-09-12T11:42:08;22.50;99.90
5675;DHT22;2860;54.284;10.158;2022-09-12T11:44:42;22.50;99.90
5675;DHT22;2860;54.284;10.158;2022-09-12T11:47:12;22.60;99.90
5675;DHT22;2860;54.284;10.158;2022-09-12T11:49:49;22.60;99.90
5675;DHT22;2860;54.284;10.158;2022-09-12T11:52:18;22.60;99.90
5675;DHT22;2860;54.284;10.158;2022-09-12T11:57:28;22.50;99.90
5675;DHT22;2860;54.284;10.158;2022-09-12T12:00:08;22.60;99.90
5675;DHT22;2860;54.284;10.158;2022-09-12T12:08:00;22.60;99.90
5675;DHT22;2860;54.284;10.158;2022-09-12T12:10:38;22.60;99.90
5675;DHT22;2860;54.284;10.158;2022-09-12T12:13:20;22.70;99.90
5675;DHT22;2860;54.284;10.158;2022-09-12T12:15:51;22.70;99.90
5675;DHT22;2860;54.284;10.158;2022-09-12T12:18:23;22.70;99.90
5675;DHT22;2860;54.284;10.158;2022-09-12T12:20:50;22.80;99.90
5675;DHT22;2860;54.284;10.158;2022-09-12T12:23:28;22.80;99.90
5675;DHT22;2860;54.284;10.158;2022-09-12T12:25:59;22.80;99.90
5675;DHT22;2860;54.284;10.158;2022-09-12T12:28:54;22.80;99.90
5675;DHT22;2860;54.284;10.158;2022-09-12T12:31:21;22.80;99.90
5675;DHT22;2860;54.284;10.158;2022-09-12T12:36:40;22.70;99.90
5675;DHT22;2860;54.284;10.158;2022-09-12T12:39:53;22.80;99.90
5675;DHT22;2860;54.284;10.158;2022-09-12T12:44:59;22.90;99.90
5675;DHT22;2860;54.284;10.158;2022-09-12T12:47:30;23.00;99.90
5675;DHT22;2860;54.284;10.158;2022-09-12T12:50:11;23.10;99.90
5675;DHT22;2860;54.284;10.158;2022-09-12T12:52:46;23.10;99.90
5675;DHT22;2860;54.284;10.158;2022-09-12T12:55:16;23.10;99.90
5675;DHT22;2860;54.284;10.158;2022-09-12T13:05:59;23.10;99.90
5675;DHT22;2860;54.284;10.158;2022-09-12T13:08:29;23.00;99.90
5675;DHT22;2860;54.284;10.158;2022-09-12T13:11:04;23.10;99.90
5675;DHT22;2860;54.284;10.158;2022-09-12T13:13:44;23.10;99.90
5675;DHT22;2860;54.284;10.158;2022-09-12T13:16:28;23.10;99.90
5675;DHT22;2860;54.284;10.158;2022-09-12T13:18:54;23.20;99.90
5675;DHT22;2860;54.284;10.158;2022-09-12T13:21:21;23.20;99.90
5675;DHT22;2860;54.284;10.158;2022-09-12T13:24:04;23.20;99.90
5675;DHT22;2860;54.284;10.158;2022-09-12T13:26:41;23.20;99.90
5675;DHT22;2860;54.284;10.158;2022-09-12T13:29:11;23.10;99.90
5675;DHT22;2860;54.284;10.158;2022-09-12T13:31:38;23.10;99.90
5675;DHT22;2860;54.284;10.158;2022-09-12T13:34:07;23.00;99.90
5675;DHT22;2860;54.284;10.158;2022-09-12T13:44:46;23.10;99.90
5675;DHT22;2860;54.284;10.158;2022-09-12T13:47:31;23.00;99.90
5675;DHT22;2860;54.284;10.158;2022-09-12T13:49:57;23.00;99.90
5675;DHT22;2860;54.284;10.158;2022-09-12T13:52:27;22.90;99.90
5675;DHT22;2860;54.284;10.158;2022-09-12T13:54:56;22.90;99.90
5675;DHT22;2860;54.284;10.158;2022-09-12T13:57:35;22.70;99.90
5675;DHT22;2860;54.284;10.158;2022-09-12T14:00:15;22.60;99.90
5675;DHT22;2860;54.284;10.158;2022-09-12T14:02:47;22.50;99.90
5675;DHT22;2860;54.284;10.158;2022-09-12T14:05:20;22.40;99.90
5675;DHT22;2860;54.284;10.158;2022-09-12T14:10:31;22.30;99.90
5675;DHT22;2860;54.284;10.158;2022-09-12T14:12:59;22.40;99.90
5675;DHT22;2860;54.284;10.158;2022-09-12T14:15:27;22.50;99.90
5675;DHT22;2860;54.284;10.158;2022-09-12T14:17:57;22.50;99.90
5675;DHT22;2860;54.284;10.158;2022-09-12T14:20:29;22.60;99.90
5675;DHT22;2860;54.284;10.158;2022-09-12T14:25:42;22.70;99.90
5675;DHT22;2860;54.284;10.158;2022-09-12T14:28:13;22.80;99.90
5675;DHT22;2860;54.284;10.158;2022-09-12T14:30:56;22.90;99.90
5675;DHT22;2860;54.284;10.158;2022-09-12T14:33:22;22.80;99.90
5675;DHT22;2860;54.284;10.158;2022-09-12T14:35:52;22.70;99.90
5675;DHT22;2860;54.284;10.158;2022-09-12T14:38:35;22.60;99.90
5675;DHT22;2860;54.284;10.158;2022-09-12T14:41:06;22.60;99.90
5675;DHT22;2860;54.284;10.158;2022-09-12T14:43:34;22.50;99.90
5675;DHT22;2860;54.284;10.158;2022-09-12T14:46:07;22.40;99.90
5675;DHT22;2860;54.284;10.158;2022-09-12T14:48:43;22.40;99.90
5675;DHT22;2860;54.284;10.158;2022-09-12T14:51:24;22.30;99.90
5675;DHT22;2860;54.284;10.158;2022-09-12T14:53:50;22.30;99.90
5675;DHT22;2860;54.284;10.158;2022-09-12T14:56:16;22.30;99.90
5675;DHT22;2860;54.284;10.158;2022-09-12T14:58:44;22.20;99.90
5675;DHT22;2860;54.284;10.158;2022-09-12T15:06:30;21.90;99.90
5675;DHT22;2860;54.284;10.158;2022-09-12T15:08:58;21.90;99.90
5675;DHT22;2860;54.284;10.158;2022-09-12T15:11:24;21.80;99.90
5675;DHT22;2860;54.284;10.158;2022-09-12T15:13:49;21.70;99.90
5675;DHT22;2860;54.284;10.158;2022-09-12T15:16:15;21.60;99.90
5675;DHT22;2860;54.284;10.158;2022-09-12T15:18:41;21.50;99.90
5675;DHT22;2860;54.284;10.158;2022-09-12T15:21:11;21.40;99.90
5675;DHT22;2860;54.284;10.158;2022-09-12T15:23:46;21.30;99.90
5675;DHT22;2860;54.284;10.158;2022-09-12T15:26:23;21.30;99.90
5675;DHT22;2860;54.284;10.158;2022-09-12T15:28:52;21.20;99.90
5675;DHT22;2860;54.284;10.158;2022-09-12T15:31:28;21.20;99.90
5675;DHT22;2860;54.284;10.158;2022-09-12T15:33:56;21.10;99.90
5675;DHT22;2860;54.284;10.158;2022-09-12T15:36:22;21.00;99.90
5675;DHT22;2860;54.284;10.158;2022-09-12T15:38:49;21.00;99.90
5675;DHT22;2860;54.284;10.158;2022-09-12T15:41:17;20.90;99.90
5675;DHT22;2860;54.284;10.158;2022-09-12T15:43:44;20.90;99.90
5675;DHT22;2860;54.284;10.158;2022-09-12T15:46:10;20.80;99.90
5675;DHT22;2860;54.284;10.158;2022-09-12T15:48:37;20.80;99.90
5675;DHT22;2860;54.284;10.158;2022-09-12T15:51:04;20.70;99.90
5675;DHT22;2860;54.284;10.158;2022-09-12T15:53:29;20.70;99.90
5675;DHT22;2860;54.284;10.158;2022-09-12T15:55:56;20.60;99.90
5675;DHT22;2860;54.284;10.158;2022-09-12T15:58:21;20.50;99.90
5675;DHT22;2860;54.284;10.158;2022-09-12T16:00:47;20.40;99.90
5675;DHT22;2860;54.284;10.158;2022-09-12T16:03:20;20.40;99.90
5675;DHT22;2860;54.284;10.158;2022-09-12T16:05:47;20.30;99.90
5675;DHT22;2860;54.284;10.158;2022-09-12T16:08:12;20.10;99.90
5675;DHT22;2860;54.284;10.158;2022-09-12T16:10:38;20.10;99.90
5675;DHT22;2860;54.284;10.158;2022-09-12T16:13:06;20.00;99.90
5675;DHT22;2860;54.284;10.158;2022-09-12T16:15:32;19.90;99.90
5675;DHT22;2860;54.284;10.158;2022-09-12T16:17:57;19.80;99.90
5675;DHT22;2860;54.284;10.158;2022-09-12T16:20:23;19.70;99.90
5675;DHT22;2860;54.284;10.158;2022-09-12T16:22:48;19.60;99.90
5675;DHT22;2860;54.284;10.158;2022-09-12T16:25:14;19.60;99.90
5675;DHT22;2860;54.284;10.158;2022-09-12T16:27:40;19.50;99.90
5675;DHT22;2860;54.284;10.158;2022-09-12T16:30:06;19.50;99.90
5675;DHT22;2860;54.284;10.158;2022-09-12T16:32:32;19.40;99.90
5675;DHT22;2860;54.284;10.158;2022-09-12T16:34:58;19.30;99.90
5675;DHT22;2860;54.284;10.158;2022-09-12T16:37:24;19.20;99.90
5675;DHT22;2860;54.284;10.158;2022-09-12T16:39:49;19.20;99.90
5675;DHT22;2860;54.284;10.158;2022-09-12T16:42:16;19.10;99.90
5675;DHT22;2860;54.284;10.158;2022-09-12T16:44:46;19.10;99.90
5675;DHT22;2860;54.284;10.158;2022-09-12T16:47:12;19.00;99.90
5675;DHT22;2860;54.284;10.158;2022-09-12T16:49:38;19.00;99.90
5675;DHT22;2860;54.284;10.158;2022-09-12T16:52:03;18.90;99.90
5675;DHT22;2860;54.284;10.158;2022-09-12T16:54:30;18.90;99.90
5675;DHT22;2860;54.284;10.158;2022-09-12T16:56:55;18.80;99.90
5675;DHT22;2860;54.284;10.158;2022-09-12T16:59:21;18.70;99.90
5675;DHT22;2860;54.284;10.158;2022-09-12T17:01:46;18.70;99.90
5675;DHT22;2860;54.284;10.158;2022-09-12T17:04:12;18.60;99.90
5675;DHT22;2860;54.284;10.158;2022-09-12T17:06:37;18.50;99.90
5675;DHT22;2860;54.284;10.158;2022-09-12T17:09:03;18.50;99.90
5675;DHT22;2860;54.284;10.158;2022-09-12T17:11:31;18.40;99.90
5675;DHT22;2860;54.284;10.158;2022-09-12T17:13:58;18.40;99.90
5675;DHT22;2860;54.284;10.158;2022-09-12T17:16:25;18.30;99.90
5675;DHT22;2860;54.284;10.158;2022-09-12T17:18:52;18.20;99.90
5675;DHT22;2860;54.284;10.158;2022-09-12T17:21:18;18.20;99.90
5675;DHT22;2860;54.284;10.158;2022-09-12T17:23:44;18.20;99.90
5675;DHT22;2860;54.284;10.158;2022-09-12T17:26:10;18.10;99.90
5675;DHT22;2860;54.284;10.158;2022-09-12T17:28:37;18.00;99.90
5675;DHT22;2860;54.284;10.158;2022-09-12T17:31:06;18.00;99.90
5675;DHT22;2860;54.284;10.158;2022-09-12T17:33:32;17.90;99.90
5675;DHT22;2860;54.284;10.158;2022-09-12T17:36:03;17.90;99.90
5675;DHT22;2860;54.284;10.158;2022-09-12T17:38:33;17.80;99.90
5675;DHT22;2860;54.284;10.158;2022-09-12T17:41:18;17.80;99.90
5675;DHT22;2860;54.284;10.158;2022-09-12T17:43:48;17.70;99.90
5675;DHT22;2860;54.284;10.158;2022-09-12T17:46:18;17.70;99.90
5675;DHT22;2860;54.284;10.158;2022-09-12T17:48:44;17.60;99.90
5675;DHT22;2860;54.284;10.158;2022-09-12T17:51:14;17.60;99.90
5675;DHT22;2860;54.284;10.158;2022-09-12T17:53:40;17.60;99.90
5675;DHT22;2860;54.284;10.158;2022-09-12T17:56:07;17.50;99.90
5675;DHT22;2860;54.284;10.158;2022-09-12T17:58:34;17.50;99.90